This is the latest recevied weather packets stored in our database for station/object NUUKSIO. If no packets are shown the sender has not sent any weather packets the latest 10 day(s).
| Time | Temp. | Humidity | Pressure | Rain* | Wind** | Luminosity | Snow |
|---|---|---|---|---|---|---|---|
| 1777645619 | 20.56° C | 29% | 1016.5 hPa | 0 mm | - | - | - |
| 1777644418 | 20.56° C | 30% | 1016.7 hPa | 0 mm | - | - | - |
| 1777643218 | 20.56° C | 29% | 1017 hPa | 0 mm | - | - | - |
| 1777642019 | 20.56° C | 29% | 1017.3 hPa | 0 mm | - | - | - |
| 1777640818 | 20.56° C | 28% | 1017.5 hPa | 0 mm | - | - | - |
| 1777639618 | 20.56° C | 29% | 1017.7 hPa | 0 mm | - | - | - |
| 1777638418 | 21.11° C | 29% | 1018.1 hPa | 0 mm | - | - | - |
| 1777637218 | 20.56° C | 29% | 1018.4 hPa | 0 mm | - | - | - |
| 1777636017 | 21.11° C | 31% | 1018.5 hPa | 0 mm | - | - | - |
| 1777634818 | 20.56° C | 33% | 1018.7 hPa | 0 mm | - | - | - |
| 1777633618 | 20° C | 33% | 1018.8 hPa | 0 mm | - | - | - |
| 1777632417 | 18.89° C | 36% | 1019 hPa | 0 mm | - | - | - |
| 1777631218 | 18.33° C | 39% | 1019.3 hPa | 0 mm | - | - | - |
| 1777630018 | 18.89° C | 37% | 1019.4 hPa | 0 mm | - | - | - |
| 1777628818 | 17.78° C | 39% | 1019.7 hPa | 0 mm | - | - | - |
| 1777627618 | 17.78° C | 39% | 1019.8 hPa | 0 mm | - | - | - |
| 1777626417 | 17.78° C | 41% | 1020.1 hPa | 0 mm | - | - | - |
| 1777625217 | 17.22° C | 43% | 1020.1 hPa | 0 mm | - | - | - |
| 1777624017 | 17.22° C | 46% | 1020.1 hPa | 0 mm | - | - | - |
| 1777622818 | 16.11° C | 50% | 1020.3 hPa | 0 mm | - | - | - |
| 1777621617 | 15.56° C | 50% | 1020.4 hPa | 0 mm | - | - | - |
| 1777620417 | 14.44° C | 53% | 1020.6 hPa | 0 mm | - | - | - |
| 1777619217 | 13.89° C | 54% | 1020.7 hPa | 0 mm | - | - | - |
| 1777618017 | 13.89° C | 57% | 1020.8 hPa | 0 mm | - | - | - |
| 1777616818 | 13.33° C | 60% | 1020.8 hPa | 0 mm | - | - | - |
* Rain latest hour (hover to see other rain measurements)
** Current wind speed in m/s (hover to see current wind gust speed)